Latest Coastal Weather Observations for Darwin Airport

IDD60701

Issued at 1:21 pm CST Tuesday 28 May 2024 (issued every 10 minutes, with the page automatically refreshed every 10 minutes)

About coastal observations | Map of coastal stations | Coastal observations for NT | Marine services | Other Formats
Station Details ID: 014015 Name: DARWIN AIRPORT Lat: -12.42 Lon: 130.89 Height: 30.4 m
Data from the previous 72 hours. | See also: Recent months at Darwin Airport
Date/Time
CST
Wind Sea
Height
m
Swell Vis
km
Cloud Weather Temp
°C
Press
MSL
hPa
Rain since
9am
mm
Dir  Spd
kts
Gust
kts
Height
m
Period
s
Dir
28/01:00pm E 11 16 - - - - 10 - - 32.4 1011.7 0.0
28/12:30pm ESE 11 15 - - - - 10 - - 31.5 1012.1 0.0
28/12:00pm E 13 18 - - - - 30 Partly cloudy Smoke 31.1 1012.5 0.0
28/11:30am E 15 21 - - - - 10 - - 31.1 1012.7 0.0
28/11:00am E 14 20 - - - - 10 - - 30.4 1013.0 0.0
28/10:30am E 14 18 - - - - 10 - - 30.3 1013.4 0.0
28/10:00am ESE 12 18 - - - - 10 - - 28.8 1013.5 0.0
28/09:30am ESE 9 12 - - - - 10 - - 28.3 1013.5 0.0
28/09:00am SE 10 14 - - - - 30 Partly cloudy Fine 27.5 1013.4 0.0
28/08:30am ESE 7 9 - - - - 10 - - 26.0 1013.6 0.0
28/08:00am SE 5 8 - - - - 10 - - 24.9 1013.4 0.0
28/07:30am ESE 6 8 - - - - 10 - - 24.6 1013.2 0.0
28/07:00am ESE 5 8 - - - - 10 - - 24.7 1012.9 0.0
28/06:30am ESE 6 8 - - - - 10 - - 24.8 1012.6 0.0
28/06:00am ESE 6 8 - - - - 10 Mostly clear - 24.8 1012.4 0.0
28/05:30am ESE 5 6 - - - - 10 - - 24.5 1012.3 0.0
28/05:00am SE 5 6 - - - - 10 - - 24.7 1012.3 0.0
28/04:30am SE 4 5 - - - - 10 Partly cloudy - 24.8 1012.2 0.0
28/04:00am SE 2 3 - - - - 10 Cloudy - 24.4 1012.3 0.0
28/03:30am SE 1 2 - - - - 10 Partly cloudy - 24.6 1012.4 0.0
28/03:00am SE 2 3 - - - - 10 Mostly cloudy - 24.8 1012.5 0.0
28/02:30am SE 3 3 - - - - 10 - - 25.2 1012.5 0.0
28/02:00am SE 2 2 - - - - 10 - - 25.4 1012.6 0.0
28/01:30am SE 3 4 - - - - 10 - - 25.5 1012.4 0.0
28/01:00am SSE 4 5 - - - - 10 - - 25.8 1012.5 0.0
28/12:30am SSE 3 4 - - - - 10 - - 26.1 1012.5 0.0
28/12:00am SSE 4 5 - - - - 10 - - 26.5 1012.6 0.0
 
Date/Time
CST
Wind Sea
Height
m
Swell Vis
km
Cloud Weather Temp
°C
Press
MSL
hPa
Rain since
9am
mm
Dir  Spd
kts
Gust
kts
Height
m
Period
s
Dir
27/11:30pm SE 4 4 - - - - 10 - - 26.4 1012.8 0.0
27/11:00pm SSE 2 3 - - - - 10 - - 26.9 1012.9 0.0
27/10:30pm S 3 4 - - - - 10 - - 27.2 1012.9 0.0
27/10:00pm ENE 2 3 - - - - 10 - - 27.2 1012.8 0.0
27/09:30pm NE 4 5 - - - - 10 - - 27.2 1012.6 0.0
27/09:00pm NE 5 7 - - - - 25 Partly cloudy Smoke 27.4 1012.6 0.0
27/08:30pm NE 6 7 - - - - 10 - - 27.6 1012.4 0.0
27/08:00pm NE 6 9 - - - - 10 - - 28.1 1012.2 0.0
27/07:30pm NE 8 10 - - - - 10 - - 28.5 1011.8 0.0
27/07:00pm NE 8 10 - - - - 10 - - 29.1 1011.5 0.0
27/06:30pm N 7 11 - - - - 10 - - 30.2 1011.1 0.0
27/06:00pm E 7 11 - - - - 25 Partly cloudy Smoke 32.0 1010.6 0.0
27/05:30pm E 8 11 - - - - 10 - - 33.0 1010.3 0.0
27/05:00pm E 11 14 - - - - 10 - - 33.2 1010.1 0.0
27/04:30pm ESE 9 14 - - - - 10 - - 33.1 1009.9 0.0
27/04:00pm E 11 15 - - - - 10 - - 33.4 1010.0 0.0
27/03:30pm E 10 15 - - - - 10 - - 33.8 1010.1 0.0
27/03:00pm ESE 9 15 - - - - 30 Mostly clear Smoke 33.7 1010.3 0.0
27/02:30pm E 11 15 - - - - 10 - - 33.3 1010.6 0.0
27/02:00pm ESE 10 17 - - - - 10 - - 32.9 1010.9 0.0
27/01:30pm E 13 17 - - - - 10 - - 32.8 1011.3 0.0
27/01:00pm E 13 18 - - - - 10 - - 32.9 1011.7 0.0
27/12:30pm E 17 22 - - - - 10 - - 32.3 1012.2 0.0
27/12:00pm ESE 16 23 - - - - 30 Mostly clear Fine 31.9 1012.3 0.0
27/11:30am E 17 24 - - - - 10 - - 31.4 1012.7 0.0
27/11:00am ESE 16 23 - - - - 10 - - 30.8 1013.2 0.0
27/10:30am ESE 14 20 - - - - 10 - - 30.2 1013.6 0.0
27/10:00am ESE 14 18 - - - - 10 - - 29.5 1013.7 0.0
27/09:30am SE 9 12 - - - - 10 - - 28.3 1014.0 0.0
27/09:00am SE 8 11 - - - - 30 Mostly clear Smoke 26.4 1014.1 0.0
27/08:30am SE 7 9 - - - - 10 Cloudy - 25.5 1013.9 0.0
27/08:00am SE 5 7 - - - - 10 Partly cloudy - 25.3 1013.6 0.0
27/07:30am SE 6 8 - - - - 10 - - 24.2 1013.1 0.0
27/07:00am SE 6 7 - - - - 10 - - 24.1 1012.8 0.0
27/06:30am SE 5 6 - - - - 10 - - 24.2 1012.7 0.0
27/06:00am SE 4 6 - - - - 10 Partly cloudy - 24.6 1012.4 0.0
27/05:30am SSE 5 6 - - - - 10 Cloudy - 25.0 1012.2 0.0
27/05:00am SSE 4 5 - - - - 10 Partly cloudy - 24.6 1011.9 0.0
27/04:30am SSE 3 4 - - - - 10 - - 24.8 1011.7 0.0
27/04:00am S 4 5 - - - - 10 - - 25.0 1011.7 0.0
27/03:30am S 4 5 - - - - 10 - - 25.3 1011.8 0.0
27/03:00am S 3 4 - - - - 10 - - 25.5 1011.8 0.0
27/02:30am S 3 4 - - - - 10 - - 25.4 1011.9 0.0
27/02:00am S 6 7 - - - - 10 - - 25.6 1012.3 0.0
27/01:30am S 6 7 - - - - 10 - - 25.6 1012.5 0.0
27/01:00am S 7 9 - - - - 10 - - 25.9 1012.7 0.0
27/12:30am S 7 9 - - - - 10 - - 26.0 1013.0 0.0
27/12:00am SSW 7 9 - - - - 10 - - 26.1 1013.1 0.0
 
Date/Time
CST
Wind Sea
Height
m
Swell Vis
km
Cloud Weather Temp
°C
Press
MSL
hPa
Rain since
9am
mm
Dir  Spd
kts
Gust
kts
Height
m
Period
s
Dir
26/11:30pm SSW 6 8 - - - - 10 - - 26.3 1013.2 0.0
26/11:00pm SSW 6 8 - - - - 10 - - 26.5 1013.4 0.0
26/10:30pm SW 4 5 - - - - 10 - - 26.8 1013.6 0.0
26/10:00pm SW 3 5 - - - - 10 - - 27.0 1013.7 0.0
26/09:30pm WSW 4 5 - - - - 10 - - 27.3 1013.6 0.0
26/09:00pm SW 2 3 - - - - 30 Mostly clear Smoke 27.3 1013.5 0.0
26/08:30pm NNE 2 2 - - - - 10 - - 27.3 1013.2 0.0
26/08:00pm NNE 3 4 - - - - 10 - - 27.6 1012.9 0.0
26/07:30pm N 4 5 - - - - 10 - - 27.9 1012.7 0.0
26/07:00pm N 4 5 - - - - 10 - - 28.1 1012.4 0.0
26/06:30pm NNW 5 6 - - - - 10 - - 28.6 1011.9 0.0
26/06:00pm NNW 6 8 - - - - 30 Mostly cloudy Smoke 29.3 1011.6 0.0
26/05:30pm NNW 5 7 - - - - 10 Mostly clear - 30.4 1011.3 0.0
26/05:00pm NNW 6 8 - - - - 10 Mostly clear - 30.7 1011.1 0.0
26/04:30pm NNW 7 9 - - - - 10 Partly cloudy - 31.5 1010.9 0.0
26/04:00pm NW 9 11 - - - - 10 - - 31.3 1010.9 0.0
26/03:30pm NW 9 13 - - - - 10 Partly cloudy - 33.1 1011.1 0.0
26/03:00pm ENE 7 11 - - - - 25 Mostly cloudy Smoke 32.7 1011.3 0.0
26/02:30pm ESE 9 14 - - - - 10 Partly cloudy - 32.8 1011.6 0.0
26/02:00pm E 8 14 - - - - 10 Partly cloudy - 32.9 1011.9 0.0
26/01:30pm E 8 13 - - - - 10 Partly cloudy - 33.1 1012.3 0.0
26/01:00pm E 8 14 - - - - 10 Mostly clear - 31.6 1012.7 0.0
26/12:30pm ESE 10 15 - - - - 10 Mostly clear - 31.8 1013.2 0.0
26/12:00pm E 11 15 - - - - 25 Partly cloudy Smoke 31.4 1013.7 0.0
26/11:30am E 9 15 - - - - 10 Mostly clear - 31.2 1013.9 0.0
26/11:00am E 11 14 - - - - 10 Mostly clear - 30.8 1014.2 0.0
26/10:30am ESE 8 14 - - - - 10 Mostly clear - 30.4 1014.3 0.0
26/10:00am E 10 14 - - - - 10 Mostly clear - 29.4 1014.4 0.0
26/09:30am E 7 9 - - - - 10 - - 28.6 1014.4 0.0
26/09:00am ENE 4 6 - - - - 25 Mostly clear Smoke 28.1 1014.5 0.0
26/08:30am ESE 4 5 - - - - 10 - - 26.4 1014.1 0.0
26/08:00am SE 4 4 - - - - 10 - - 25.0 1014.0 0.0
26/07:30am ESE 3 4 - - - - 10 - - 24.0 1013.7 0.0
26/07:00am ESE 2 3 - - - - 10 Mostly clear - 23.4 1013.7 0.0
26/06:30am ESE 2 2 - - - - 10 Mostly clear - 23.6 1013.4 0.0
26/06:00am ESE 3 4 - - - - 10 Mostly clear - 24.1 1013.0 0.0
26/05:30am ESE 4 5 - - - - 10 - - 23.6 1012.8 0.0
26/05:00am SE 2 3 - - - - 10 - - 24.0 1012.7 0.0
26/04:30am ESE 3 4 - - - - 10 - - 24.4 1012.5 0.0
26/04:00am ESE 1 2 - - - - 10 - - 24.0 1012.3 0.0
26/03:30am S 5 6 - - - - 10 - - 24.7 1012.4 0.0
26/03:00am S 4 5 - - - - 10 - - 25.1 1012.6 0.0
26/02:30am S 4 6 - - - - 10 Partly cloudy - 25.2 1012.6 0.0
26/02:00am S 4 5 - - - - 10 Partly cloudy - 25.6 1012.7 0.0
26/01:30am S 6 6 - - - - 10 - - 25.6 1012.8 0.0
26/01:00am S 3 4 - - - - 10 - - 25.9 1012.9 0.0
26/12:30am S 4 4 - - - - 10 Partly cloudy - 26.1 1013.0 0.0
26/12:24am S 4 4 - - - - 8 Partly cloudy - 26.2 1013.0 0.0
26/12:00am S 4 5 - - - - 4 Mostly cloudy - 26.3 1013.0 0.0
 
Date/Time
CST
Wind Sea
Height
m
Swell Vis
km
Cloud Weather Temp
°C
Press
MSL
hPa
Rain since
9am
mm
Dir  Spd
kts
Gust
kts
Height
m
Period
s
Dir
25/11:48pm S 4 5 - - - - 5 Cloudy - 26.3 1013.1 0.0
25/11:30pm S 5 6 - - - - 10 Partly cloudy - 26.3 1013.2 0.0
25/11:22pm S 5 6 - - - - 10 Partly cloudy - 26.2 1013.2 0.0
25/11:00pm S 5 7 - - - - 10 - - 26.2 1013.2 0.0
25/10:30pm S 3 3 - - - - 10 - - 26.5 1013.2 0.0
25/10:00pm SSW 3 4 - - - - 10 - - 26.5 1013.1 0.0
25/09:30pm CALM 0 0 - - - - 10 - - 26.6 1012.9 0.0
25/09:00pm NNE 2 3 - - - - 30 Clear Fine 26.6 1012.6 0.0
25/08:30pm NNE 3 4 - - - - 10 - - 26.9 1012.3 0.0
25/08:00pm NNE 3 4 - - - - 10 - - 27.3 1011.9 0.0
25/07:30pm NNE 5 7 - - - - 10 - - 27.7 1011.7 0.0
25/07:00pm NNE 7 9 - - - - 10 - - 28.2 1011.5 0.0
25/06:30pm NNE 8 11 - - - - 10 - - 28.6 1011.1 0.0
25/06:00pm NNE 9 11 - - - - 30 Mostly clear Fine 29.3 1010.8 0.0
25/05:30pm N 10 12 - - - - 10 - - 29.8 1010.5 0.0
25/05:00pm N 10 12 - - - - 10 Partly cloudy - 30.3 1010.2 0.0
25/04:30pm N 9 12 - - - - 10 Partly cloudy - 31.3 1010.0 0.0
25/04:00pm N 10 12 - - - - 10 Partly cloudy - 31.8 1010.0 0.0
25/03:30pm NW 9 11 - - - - 10 Partly cloudy - 31.6 1010.1 0.0
25/03:00pm WSW 6 9 - - - - 25 Partly cloudy Smoke 32.5 1010.4 0.0
25/02:30pm SE 7 13 - - - - 10 Partly cloudy - 32.9 1010.8 0.0
25/02:00pm SE 6 11 - - - - 10 Partly cloudy - 32.5 1011.2 0.0
25/01:30pm ESE 9 14 - - - - 10 Mostly clear - 32.3 1011.8 0.0

Other formats

Comma delimited format used in spreadsheet applications
http://www.bom.gov.au/fwo/IDD60701/IDD60701.94120.axf

JavaScript Object Notation format (JSON) in row-major order
http://www.bom.gov.au/fwo/IDD60701/IDD60701.94120.json

Data quality

Most of these data are generated automatically and are frequently updated. Quality checks on data are not normally performed. It is possible for incorrect values to appear. Refer to information at About Latest Weather Observations and please check the disclaimer before using these data.